Time;durP1;ratioP1;P1;durP2;ratioP2;P2;SDS_P1;SDS_P2;PMS_P1;PMS_P2;Temp;Humidity;BMP_temperature;BMP_pressure;BME280_temperature;BME280_humidity;BME280_pressure;Samples;Min_cycle;Max_cycle;Signal;HPM_P1;HPM_P2
2023/05/11 03:17:06;;;;;;;0.03;0.00;;;11.50;93.60;;;;;;6196782;22;88972;-77
2023/05/11 03:19:32;;;;;;;0.28;0.00;;;11.50;93.60;;;;;;6253802;22;86973;-76
2023/05/11 03:21:59;;;;;;;0.20;0.00;;;11.40;93.70;;;;;;6255037;22;86602;-76
2023/05/11 03:24:26;;;;;;;0.80;0.00;;;11.40;94.00;;;;;;6254424;22;87927;-76
2023/05/11 03:26:54;;;;;;;0.60;0.00;;;11.40;93.90;;;;;;6263335;22;87364;-77
2023/05/11 03:29:21;;;;;;;0.20;0.00;;;11.40;93.60;;;;;;6284913;22;88493;-76
2023/05/11 03:31:47;;;;;;;0.25;0.00;;;11.40;93.80;;;;;;6285855;22;87275;-76
2023/05/11 03:34:13;;;;;;;1.75;0.00;;;11.40;93.80;;;;;;6283179;22;87984;-77
2023/05/11 03:36:39;;;;;;;0.95;0.00;;;11.40;93.70;;;;;;6256544;22;89160;-76
2023/05/11 03:39:07;;;;;;;0.40;0.00;;;11.40;94.00;;;;;;6285240;22;87242;-76
2023/05/11 03:41:34;;;;;;;0.28;0.00;;;11.40;94.40;;;;;;6257148;22;87286;-77
2023/05/11 03:44:02;;;;;;;1.38;0.00;;;11.50;93.90;;;;;;6284834;22;88452;-77
2023/05/11 03:46:29;;;;;;;0.47;0.00;;;11.50;94.20;;;;;;6284504;22;87292;-77
2023/05/11 03:48:55;;;;;;;0.65;0.00;;;11.50;94.30;;;;;;6283676;22;87503;-76
2023/05/11 03:51:21;;;;;;;1.38;0.00;;;11.50;94.20;;;;;;6285789;22;87597;-77
2023/05/11 03:53:47;;;;;;;0.30;0.00;;;11.50;94.00;;;;;;6283256;22;89472;-77
2023/05/11 03:56:13;;;;;;;1.00;0.10;;;11.50;94.20;;;;;;6284176;22;88991;-77
2023/05/11 03:58:39;;;;;;;0.20;0.00;;;11.50;94.20;;;;;;6284883;22;87097;-76
2023/05/11 04:01:12;;;;;;;0.20;0.00;;;11.50;94.00;;;;;;6257229;22;87051;-76
2023/05/11 04:03:52;;;;;;;0.13;0.00;;;11.50;93.70;;;;;;6279514;22;87646;-77
2023/05/11 04:06:18;;;;;;;0.63;0.00;;;11.50;93.90;;;;;;6282221;22;87317;-78
2023/05/11 04:08:44;;;;;;;0.40;0.00;;;11.50;94.00;;;;;;6284266;22;86989;-77
2023/05/11 04:11:10;;;;;;;0.85;0.00;;;11.40;94.30;;;;;;6257353;22;86629;-77
2023/05/11 04:13:36;;;;;;;0.30;0.00;;;11.50;94.40;;;;;;6283831;22;88065;-76
2023/05/11 04:16:01;;;;;;;0.45;0.00;;;11.50;94.10;;;;;;6282294;22;87681;-78
2023/05/11 04:18:28;;;;;;;1.98;0.00;;;11.50;94.10;;;;;;6251167;22;88129;-76
2023/05/11 04:20:54;;;;;;;0.20;0.00;;;11.40;94.20;;;;;;6252663;22;86961;-77
2023/05/11 04:23:19;;;;;;;0.50;0.00;;;11.40;94.30;;;;;;6247671;22;87893;-78
2023/05/11 04:25:45;;;;;;;2.00;0.00;;;11.40;94.90;;;;;;6247683;22;88023;-77
2023/05/11 04:28:11;;;;;;;1.13;0.00;;;11.40;94.70;;;;;;6249472;22;87501;-80
2023/05/11 04:30:36;;;;;;;2.58;0.00;;;11.40;94.70;;;;;;6253091;22;87464;-76
2023/05/11 04:33:02;;;;;;;1.23;0.00;;;11.40;94.70;;;;;;6252599;22;87724;-78
2023/05/11 04:35:28;;;;;;;2.92;0.00;;;11.40;94.50;;;;;;6251051;22;88269;-78
2023/05/11 04:37:54;;;;;;;0.65;0.08;;;11.40;95.00;;;;;;6248560;22;87519;-76
2023/05/11 04:40:19;;;;;;;0.52;0.00;;;11.50;95.00;;;;;;6251057;22;87152;-76
2023/05/11 04:42:45;;;;;;;0.65;0.00;;;11.50;95.00;;;;;;6252499;22;88859;-76
2023/05/11 04:45:11;;;;;;;4.10;0.05;;;11.50;95.50;;;;;;6225565;22;90151;-78
2023/05/11 04:47:36;;;;;;;1.92;0.00;;;11.40;95.10;;;;;;6252381;22;87456;-77
2023/05/11 04:50:02;;;;;;;0.60;0.00;;;11.40;95.20;;;;;;6253108;22;86863;-77
2023/05/11 04:52:28;;;;;;;1.25;0.00;;;11.50;95.30;;;;;;6225072;22;88617;-77
2023/05/11 04:54:53;;;;;;;0.45;0.00;;;11.40;95.30;;;;;;6249602;22;87617;-76
2023/05/11 04:57:19;;;;;;;0.95;0.00;;;11.50;95.30;;;;;;6252231;22;87380;-77
2023/05/11 04:59:45;;;;;;;1.45;0.00;;;11.50;95.30;;;;;;6249706;22;86233;-77
2023/05/11 05:02:10;;;;;;;1.85;0.00;;;11.50;95.10;;;;;;6246652;22;87414;-77
2023/05/11 05:04:36;;;;;;;1.52;0.00;;;11.40;95.10;;;;;;6252714;22;87733;-76
2023/05/11 05:07:03;;;;;;;0.82;0.00;;;11.40;95.40;;;;;;6252463;22;88395;-75
2023/05/11 05:09:28;;;;;;;0.17;0.00;;;11.40;95.50;;;;;;6248964;22;87371;-77
2023/05/11 05:11:54;;;;;;;1.33;0.00;;;11.40;95.70;;;;;;6250746;22;87973;-77
2023/05/11 05:14:20;;;;;;;0.50;0.00;;;11.40;95.20;;;;;;6250071;22;87968;-76
2023/05/11 05:16:45;;;;;;;0.88;0.00;;;11.50;95.20;;;;;;6235832;22;87819;-77
2023/05/11 05:19:11;;;;;;;2.15;0.10;;;11.50;95.70;;;;;;6251891;22;87340;-79
2023/05/11 05:21:37;;;;;;;0.85;0.00;;;11.60;95.60;;;;;;6248802;22;88387;-77
2023/05/11 05:24:05;;;;;;;5.88;0.10;;;11.60;95.80;;;;;;6250951;22;87496;-76
2023/05/11 05:26:30;;;;;;;2.75;0.00;;;11.60;95.50;;;;;;6247006;22;87481;-77
2023/05/11 05:28:56;;;;;;;6.88;0.20;;;11.60;95.80;;;;;;6251924;22;87591;-76
2023/05/11 05:31:22;;;;;;;2.92;0.10;;;11.70;96.00;;;;;;6250746;22;89095;-77
2023/05/11 05:33:48;;;;;;;1.08;0.00;;;11.70;96.10;;;;;;6251558;22;88112;-77
2023/05/11 05:36:14;;;;;;;2.33;0.15;;;11.80;95.60;;;;;;6252934;22;87404;-77
2023/05/11 05:38:39;;;;;;;0.68;0.03;;;11.80;95.20;;;;;;6251719;22;87304;-77
2023/05/11 05:41:05;;;;;;;1.02;0.00;;;11.80;95.40;;;;;;6249215;22;88193;-77
2023/05/11 05:43:31;;;;;;;1.70;0.00;;;11.90;95.20;;;;;;6224613;22;89645;-77
2023/05/11 05:45:56;;;;;;;0.60;0.00;;;11.90;95.10;;;;;;6252649;22;87046;-78
2023/05/11 05:48:22;;;;;;;0.77;0.00;;;11.90;95.30;;;;;;6252709;22;86435;-76
2023/05/11 05:50:48;;;;;;;3.72;0.08;;;11.90;95.20;;;;;;6252267;22;87570;-77
2023/05/11 05:53:13;;;;;;;5.00;0.10;;;11.90;95.60;;;;;;6252718;22;87254;-76
2023/05/11 05:55:39;;;;;;;1.38;0.00;;;11.90;96.40;;;;;;6251267;22;87949;-76
2023/05/11 05:58:05;;;;;;;0.75;0.00;;;12.00;95.60;;;;;;6249582;22;87016;-77
2023/05/11 06:00:30;;;;;;;0.40;0.00;;;12.10;95.20;;;;;;6252429;22;88522;-76
2023/05/11 06:02:56;;;;;;;1.40;0.03;;;12.20;95.10;;;;;;6252763;22;87638;-77
2023/05/11 06:05:21;;;;;;;1.83;0.05;;;12.20;94.90;;;;;;6250630;22;87354;-77
2023/05/11 06:07:47;;;;;;;1.25;0.15;;;12.20;94.70;;;;;;6252089;22;86989;-76
2023/05/11 06:10:13;;;;;;;1.75;0.10;;;12.20;95.20;;;;;;6222026;22;89394;-78
2023/05/11 06:12:38;;;;;;;0.80;0.10;;;12.30;94.80;;;;;;6248748;22;87362;-76
2023/05/11 06:15:04;;;;;;;2.47;0.10;;;12.30;94.50;;;;;;6251827;22;87082;-76
2023/05/11 06:17:30;;;;;;;0.77;0.10;;;12.30;94.50;;;;;;6251104;22;87027;-77
2023/05/11 06:19:56;;;;;;;1.60;0.00;;;12.30;94.40;;;;;;6250279;22;89410;-77
2023/05/11 06:22:22;;;;;;;3.55;0.30;;;12.30;94.20;;;;;;6251553;22;88925;-77
2023/05/11 06:24:47;;;;;;;0.88;0.10;;;12.40;94.80;;;;;;6251180;22;88515;-77
2023/05/11 06:27:13;;;;;;;2.20;0.10;;;12.50;94.50;;;;;;6250671;22;86979;-82
2023/05/11 06:29:41;;;;;;;2.90;0.10;;;12.40;94.50;;;;;;6250176;22;87137;-78
2023/05/11 06:32:06;;;;;;;2.03;0.10;;;12.40;94.10;;;;;;6248897;22;87736;-77
2023/05/11 06:34:32;;;;;;;4.88;0.68;;;12.50;94.40;;;;;;6251805;22;87733;-76
2023/05/11 06:36:58;;;;;;;3.08;0.20;;;12.50;94.70;;;;;;6252124;22;86267;-77
2023/05/11 06:39:24;;;;;;;6.65;0.20;;;12.60;95.20;;;;;;6251253;22;88183;-76
2023/05/11 06:41:53;;;;;;;2.47;0.10;;;12.60;94.50;;;;;;6251521;22;88111;-77
2023/05/11 06:44:19;;;;;;;1.25;0.10;;;12.60;93.80;;;;;;6251339;22;88634;-76
2023/05/11 06:46:45;;;;;;;2.08;0.10;;;12.60;94.50;;;;;;6250127;22;87323;-78
2023/05/11 06:49:11;;;;;;;1.05;0.10;;;12.60;94.20;;;;;;6252036;22;88310;-77
2023/05/11 06:51:36;;;;;;;2.00;0.22;;;12.60;94.50;;;;;;6252217;22;88462;-77
2023/05/11 06:54:02;;;;;;;0.85;0.20;;;12.60;94.20;;;;;;6252646;22;87704;-76
2023/05/11 06:56:28;;;;;;;1.05;0.10;;;12.60;94.20;;;;;;6252363;22;87177;-77
2023/05/11 06:58:54;;;;;;;1.77;0.10;;;12.50;94.20;;;;;;6251135;22;87294;-77
2023/05/11 07:01:19;;;;;;;1.02;0.10;;;12.60;94.40;;;;;;6251194;22;87880;-81
2023/05/11 07:03:47;;;;;;;1.10;0.10;;;12.70;94.10;;;;;;6253585;22;86910;-76
2023/05/11 07:06:13;;;;;;;0.73;0.10;;;12.60;94.00;;;;;;6253496;22;87226;-76
2023/05/11 07:08:39;;;;;;;2.67;0.17;;;12.70;93.90;;;;;;6252652;22;89027;-76
2023/05/11 07:11:05;;;;;;;1.27;0.10;;;12.80;93.90;;;;;;6253587;22;88647;-76
2023/05/11 07:13:31;;;;;;;2.78;0.17;;;13.00;93.30;;;;;;6254062;22;87209;-77
2023/05/11 07:15:57;;;;;;;3.75;0.10;;;13.20;93.50;;;;;;6254123;22;87402;-77
2023/05/11 07:18:22;;;;;;;2.13;0.00;;;13.40;92.70;;;;;;6249617;22;87956;-77
2023/05/11 07:20:49;;;;;;;1.98;0.20;;;13.50;92.30;;;;;;6253182;22;88060;-77
2023/05/11 07:23:18;;;;;;;4.38;0.10;;;13.70;92.00;;;;;;6253779;22;87003;-77
2023/05/11 07:25:43;;;;;;;1.30;0.10;;;13.90;91.10;;;;;;6254422;22;86899;-77
2023/05/11 07:28:09;;;;;;;5.45;0.20;;;14.00;91.20;;;;;;6253215;22;88784;-77
2023/05/11 07:30:35;;;;;;;3.97;0.10;;;14.10;90.90;;;;;;6253372;22;87000;-77
2023/05/11 07:33:01;;;;;;;1.65;0.10;;;14.40;91.00;;;;;;6250600;22;87926;-77
2023/05/11 07:35:27;;;;;;;3.75;0.20;;;14.60;90.70;;;;;;6251253;22;87080;-77
2023/05/11 07:37:53;;;;;;;1.02;0.03;;;14.90;89.90;;;;;;6253066;22;88165;-77
2023/05/11 07:40:19;;;;;;;1.15;0.10;;;15.10;87.90;;;;;;6253240;22;87535;-77
2023/05/11 07:42:44;;;;;;;0.70;0.03;;;15.20;86.10;;;;;;6253033;22;87070;-77
2023/05/11 07:45:10;;;;;;;0.60;0.10;;;15.40;86.70;;;;;;6254054;22;86943;-77
2023/05/11 07:47:36;;;;;;;0.73;0.10;;;15.80;86.90;;;;;;6253415;22;87661;-78
2023/05/11 07:50:02;;;;;;;0.80;0.38;;;16.30;83.80;;;;;;6253796;22;88208;-78
2023/05/11 07:52:27;;;;;;;1.98;0.10;;;17.20;82.70;;;;;;6250847;22;87479;-78
2023/05/11 07:54:53;;;;;;;1.77;0.22;;;17.80;79.30;;;;;;6250792;22;87240;-78
2023/05/11 07:57:19;;;;;;;2.10;0.38;;;18.30;76.70;;;;;;6249497;22;88924;-77
2023/05/11 07:59:45;;;;;;;0.80;0.10;;;18.70;75.10;;;;;;6253525;22;88738;-78
2023/05/11 08:02:11;;;;;;;0.98;0.25;;;18.90;72.40;;;;;;6253715;22;87471;-77
2023/05/11 08:04:36;;;;;;;1.60;0.30;;;19.10;73.70;;;;;;6252393;22;87240;-77
2023/05/11 08:07:03;;;;;;;0.68;0.10;;;19.20;72.40;;;;;;6252722;22;87762;-77
2023/05/11 08:09:29;;;;;;;2.38;0.10;;;19.20;71.50;;;;;;6253384;22;87220;-78
2023/05/11 08:12:00;;;;;;;0.60;0.10;;;19.20;71.20;;;;;;6253604;22;86856;-79
2023/05/11 08:14:26;;;;;;;0.80;0.60;;;19.20;70.80;;;;;;6252085;22;86510;-79
2023/05/11 08:16:52;;;;;;;0.63;0.10;;;19.00;70.50;;;;;;6253081;22;87557;-77
2023/05/11 08:19:18;;;;;;;8.23;0.52;;;18.70;72.20;;;;;;6253112;22;87301;-76
2023/05/11 08:21:45;;;;;;;1.77;0.10;;;18.80;70.20;;;;;;6252725;22;88205;-76
2023/05/11 08:24:11;;;;;;;3.08;0.15;;;18.50;72.40;;;;;;6253418;22;87199;-76
2023/05/11 08:26:37;;;;;;;0.45;0.10;;;18.40;73.20;;;;;;6252879;22;88996;-76
2023/05/11 08:29:03;;;;;;;1.00;0.30;;;18.20;71.30;;;;;;6250472;22;87615;-78
2023/05/11 08:31:29;;;;;;;1.33;0.40;;;18.10;71.60;;;;;;6253486;22;87549;-78
2023/05/11 08:33:55;;;;;;;1.20;0.05;;;17.90;70.80;;;;;;6253134;22;87334;-79
2023/05/11 08:36:21;;;;;;;3.15;0.10;;;17.80;73.30;;;;;;6253019;22;87670;-77
2023/05/11 08:38:47;;;;;;;1.83;0.20;;;18.00;74.00;;;;;;6253572;22;87299;-78
2023/05/11 08:41:12;;;;;;;0.70;0.10;;;18.20;72.60;;;;;;6253710;22;86959;-77
2023/05/11 08:43:39;;;;;;;0.85;0.10;;;18.30;72.10;;;;;;6250434;22;87463;-78
2023/05/11 08:46:08;;;;;;;0.32;0.00;;;18.30;71.20;;;;;;6250134;22;88403;-79
2023/05/11 08:48:34;;;;;;;0.57;0.03;;;18.20;71.30;;;;;;6252487;22;88826;-78
2023/05/11 08:51:03;;;;;;;1.67;0.10;;;18.00;72.10;;;;;;6250809;22;86960;-78
2023/05/11 08:53:29;;;;;;;0.75;0.10;;;17.80;72.00;;;;;;6253482;22;87048;-77
2023/05/11 08:55:58;;;;;;;0.68;0.00;;;17.60;72.00;;;;;;6252834;22;88444;-78
2023/05/11 08:58:25;;;;;;;0.30;0.10;;;17.30;73.10;;;;;;6253557;22;88293;-76
2023/05/11 09:00:50;;;;;;;0.60;0.10;;;17.00;74.80;;;;;;6253139;22;87294;-77
2023/05/11 09:03:18;;;;;;;1.42;0.10;;;16.80;75.10;;;;;;6253095;22;87556;-78
2023/05/11 09:05:48;;;;;;;1.42;0.13;;;16.50;76.00;;;;;;6222599;22;88464;-76
2023/05/11 09:08:17;;;;;;;0.90;0.20;;;16.50;75.40;;;;;;6225643;22;90141;-77
2023/05/11 09:10:43;;;;;;;2.80;0.20;;;16.60;75.60;;;;;;6252608;22;88281;-77
2023/05/11 09:13:09;;;;;;;1.08;0.10;;;16.80;75.10;;;;;;6253552;22;87357;-80
2023/05/11 09:15:35;;;;;;;0.30;0.10;;;17.10;73.10;;;;;;6253117;22;87625;-77
2023/05/11 09:18:02;;;;;;;1.05;0.10;;;17.40;72.40;;;;;;6252608;22;87593;-77
2023/05/11 09:20:30;;;;;;;1.73;0.10;;;17.60;73.80;;;;;;6250620;22;87182;-78
2023/05/11 09:22:57;;;;;;;1.20;0.13;;;18.00;72.80;;;;;;6225508;22;87052;-76
2023/05/11 09:25:24;;;;;;;2.15;0.10;;;18.20;70.90;;;;;;6252793;22;88499;-77
2023/05/11 09:27:50;;;;;;;2.38;0.25;;;19.10;69.80;;;;;;6253363;22;86876;-77
2023/05/11 09:30:21;;;;;;;1.38;0.10;;;19.70;66.50;;;;;;6253200;22;86925;-79
2023/05/11 09:32:57;;;;;;;1.13;0.20;;;20.00;67.10;;;;;;6253565;22;87346;-77
2023/05/11 09:35:30;;;;;;;0.90;0.30;;;20.80;64.10;;;;;;6251748;22;88562;-77
2023/05/11 09:38:10;;;;;;;1.45;0.20;;;21.40;63.70;;;;;;6249316;22;88656;-77
2023/05/11 09:40:50;;;;;;;2.90;0.22;;;22.10;61.50;;;;;;6252874;22;87203;-77
2023/05/11 09:43:18;;;;;;;0.50;0.17;;;22.90;58.90;;;;;;6253110;22;86979;-77
2023/05/11 09:45:46;;;;;;;0.95;0.22;;;23.10;57.80;;;;;;6251950;22;88867;-78
2023/05/11 09:48:34;;;;;;;1.10;0.22;;;23.50;57.60;;;;;;6252729;22;87605;-79
2023/05/11 09:51:03;;;;;;;1.05;0.93;;;24.50;53.80;;;;;;6253092;22;87340;-78
2023/05/11 09:53:49;;;;;;;1.25;0.52;;;25.50;52.30;;;;;;6250062;22;86713;-78
2023/05/11 09:56:15;;;;;;;0.63;0.13;;;26.50;51.00;;;;;;6252243;22;88265;-79
2023/05/11 09:58:53;;;;;;;1.75;0.32;;;27.30;49.40;;;;;;6251992;22;87186;-79
2023/05/11 10:01:29;;;;;;;1.77;0.20;;;27.40;49.40;;;;;;6252500;22;87805;-79
2023/05/11 10:03:54;;;;;;;0.85;0.25;;;27.20;49.60;;;;;;6252639;22;87260;-79
2023/05/11 10:06:20;;;;;;;1.48;0.30;;;26.80;49.50;;;;;;6252036;22;88230;-78
2023/05/11 10:08:47;;;;;;;0.70;0.20;;;26.20;48.90;;;;;;6249303;22;87765;-78
2023/05/11 10:11:13;;;;;;;1.98;0.95;;;26.00;49.60;;;;;;6244974;22;87547;-79
2023/05/11 10:13:39;;;;;;;0.85;0.30;;;25.90;51.20;;;;;;6246294;22;87296;-79
2023/05/11 10:16:06;;;;;;;1.85;0.22;;;25.80;49.80;;;;;;6244197;22;87761;-80
2023/05/11 10:18:32;;;;;;;1.65;0.55;;;25.80;51.00;;;;;;6248808;22;87198;-76
2023/05/11 10:20:59;;;;;;;0.90;0.35;;;25.40;51.00;;;;;;6248847;22;87323;-78
2023/05/11 10:23:25;;;;;;;0.98;0.20;;;25.00;51.30;;;;;;6246662;22;87535;-78
2023/05/11 10:25:55;;;;;;;1.02;0.10;;;24.20;52.00;;;;;;6246846;22;88604;-80
2023/05/11 10:28:21;;;;;;;0.77;0.10;;;23.50;53.40;;;;;;6248342;22;88182;-77
2023/05/11 10:30:48;;;;;;;0.80;0.13;;;22.80;55.80;;;;;;6248582;22;86906;-76
2023/05/11 10:33:15;;;;;;;2.08;0.30;;;22.50;56.50;;;;;;6247453;22;87372;-77
2023/05/11 10:35:42;;;;;;;1.73;0.50;;;22.20;56.40;;;;;;6246331;22;87665;-76
2023/05/11 10:38:08;;;;;;;3.45;0.60;;;22.00;56.70;;;;;;6251882;22;87827;-77
2023/05/11 10:40:39;;;;;;;1.45;0.40;;;21.50;57.40;;;;;;6248908;22;86996;-77
2023/05/11 10:43:24;;;;;;;1.17;0.20;;;20.90;59.10;;;;;;6244500;22;86609;-77
2023/05/11 10:46:16;;;;;;;0.80;0.10;;;20.30;60.00;;;;;;6246540;22;87701;-79
2023/05/11 10:49:26;;;;;;;1.88;0.30;;;20.00;62.60;;;;;;6247409;22;87645;-77
2023/05/11 10:52:15;;;;;;;0.77;0.10;;;19.70;62.20;;;;;;6239840;22;88852;-78
2023/05/11 10:54:45;;;;;;;2.22;0.20;;;19.50;63.40;;;;;;6249924;22;87447;-76
2023/05/11 10:57:17;;;;;;;0.82;0.10;;;19.40;63.90;;;;;;6245876;22;88248;-78
2023/05/11 10:59:42;;;;;;;2.33;0.20;;;19.40;65.10;;;;;;6249961;22;87062;-77
2023/05/11 11:02:09;;;;;;;1.52;0.13;;;19.60;66.10;;;;;;6252159;22;87280;-77
2023/05/11 11:04:41;;;;;;;0.95;0.10;;;19.80;64.90;;;;;;6253372;22;87319;-76
2023/05/11 11:07:08;;;;;;;2.05;0.20;;;20.00;62.40;;;;;;6252229;22;88036;-77
2023/05/11 11:09:51;;;;;;;2.85;0.10;;;20.30;63.80;;;;;;6249033;22;86629;-78
2023/05/11 11:12:18;;;;;;;0.90;0.10;;;20.70;64.10;;;;;;6242198;22;87233;-81
2023/05/11 11:14:59;;;;;;;1.20;0.15;;;21.10;61.70;;;;;;6247374;22;87708;-80
2023/05/11 11:17:30;;;;;;;2.17;0.10;;;21.30;59.10;;;;;;6248349;22;87927;-79
2023/05/11 11:20:06;;;;;;;2.72;0.10;;;21.50;60.80;;;;;;6249720;22;89442;-79
2023/05/11 11:22:37;;;;;;;0.82;0.10;;;21.60;56.90;;;;;;6249859;22;87579;-76
2023/05/11 11:25:04;;;;;;;0.98;0.13;;;21.60;59.10;;;;;;6252768;22;88227;-77
2023/05/11 11:27:39;;;;;;;1.80;0.20;;;22.20;56.10;;;;;;6253049;22;88574;-80
2023/05/11 11:30:14;;;;;;;1.08;0.20;;;22.20;58.80;;;;;;6252359;22;88132;-78
2023/05/11 11:32:40;;;;;;;1.05;0.22;;;22.70;58.40;;;;;;6253496;22;87281;-79
2023/05/11 11:35:40;;;;;;;3.00;0.30;;;22.70;55.30;;;;;;6250452;22;86295;-79
2023/05/11 11:38:14;;;;;;;1.38;0.10;;;22.50;57.20;;;;;;6252716;22;88087;-77
2023/05/11 11:40:44;;;;;;;1.35;0.17;;;22.50;56.20;;;;;;6252006;22;87154;-79
2023/05/11 11:43:19;;;;;;;0.82;0.17;;;22.60;57.90;;;;;;6251306;22;87940;-77
2023/05/11 11:46:01;;;;;;;0.57;0.13;;;22.40;56.90;;;;;;6251682;22;87643;-78
2023/05/11 11:48:34;;;;;;;0.55;0.10;;;22.40;55.00;;;;;;6251366;22;88234;-78
2023/05/11 11:51:11;;;;;;;1.25;0.20;;;22.50;56.00;;;;;;6222992;22;89201;-78
2023/05/11 11:53:39;;;;;;;0.73;0.10;;;22.60;55.20;;;;;;6252330;22;86968;-77
2023/05/11 11:56:34;;;;;;;1.00;0.20;;;22.30;55.10;;;;;;6250428;22;87566;-77
2023/05/11 11:59:03;;;;;;;1.90;0.20;;;21.60;54.40;;;;;;6250480;22;88589;-78
2023/05/11 12:01:35;;;;;;;1.83;0.17;;;21.40;55.60;;;;;;6252811;22;87229;-78
2023/05/11 12:04:04;;;;;;;1.05;0.30;;;21.20;57.10;;;;;;6253275;22;87071;-77
2023/05/11 12:06:41;;;;;;;1.00;0.35;;;21.20;56.70;;;;;;6221881;22;87473;-79
2023/05/11 12:09:07;;;;;;;3.90;0.30;;;21.20;57.30;;;;;;6252068;22;89047;-78
2023/05/11 12:11:33;;;;;;;2.25;0.10;;;21.00;58.60;;;;;;6252620;22;88289;-77
2023/05/11 12:14:00;;;;;;;2.15;0.40;;;21.00;59.90;;;;;;6251387;22;87323;-78
2023/05/11 12:16:25;;;;;;;2.90;0.25;;;20.80;57.70;;;;;;6249560;22;87314;-78
2023/05/11 12:18:52;;;;;;;3.72;0.20;;;20.20;58.20;;;;;;6249019;22;87685;-80
2023/05/11 12:21:27;;;;;;;4.00;0.32;;;19.90;59.20;;;;;;6247660;22;87818;-79
2023/05/11 12:24:00;;;;;;;1.45;0.22;;;19.40;61.50;;;;;;6251300;22;87659;-79
2023/05/11 12:26:27;;;;;;;2.17;0.10;;;19.10;62.70;;;;;;6253227;22;87016;-78
2023/05/11 12:29:13;;;;;;;1.70;0.20;;;19.00;61.80;;;;;;6252697;22;88472;-78
2023/05/11 12:31:44;;;;;;;1.50;0.20;;;18.90;62.80;;;;;;6225720;22;91612;-78
2023/05/11 12:34:17;;;;;;;1.58;0.30;;;19.00;63.60;;;;;;6252903;22;87955;-80
2023/05/11 12:36:44;;;;;;;4.07;0.50;;;19.00;62.50;;;;;;6249901;22;87335;-80
2023/05/11 12:39:20;;;;;;;1.35;0.10;;;18.90;62.70;;;;;;6249226;22;88783;-78
2023/05/11 12:41:47;;;;;;;1.10;0.20;;;19.10;60.90;;;;;;6252804;22;88270;-79
2023/05/11 12:44:15;;;;;;;0.70;0.10;;;19.10;62.60;;;;;;6253452;22;87176;-78
2023/05/11 12:46:41;;;;;;;0.82;0.25;;;19.30;61.20;;;;;;6252783;22;87206;-79
2023/05/11 12:49:08;;;;;;;2.78;0.20;;;19.70;61.00;;;;;;6252252;22;87872;-79
2023/05/11 12:52:00;;;;;;;1.55;0.10;;;20.00;61.60;;;;;;6251588;22;88182;-79
2023/05/11 12:54:30;;;;;;;1.55;0.08;;;20.20;60.50;;;;;;6249105;22;87542;-79
2023/05/11 12:56:56;;;;;;;1.08;0.30;;;20.30;57.40;;;;;;6249603;22;87371;-80
2023/05/11 12:59:34;;;;;;;0.80;0.10;;;20.30;58.00;;;;;;6250374;22;89578;-79
2023/05/11 13:02:05;;;;;;;1.88;0.40;;;20.50;59.90;;;;;;6248243;22;88947;-80
2023/05/11 13:04:31;;;;;;;2.72;0.13;;;20.80;59.70;;;;;;6252468;22;86942;-79
2023/05/11 13:06:57;;;;;;;1.48;0.30;;;20.90;59.30;;;;;;6245943;22;88021;-83
2023/05/11 13:09:24;;;;;;;0.85;0.10;;;21.10;57.30;;;;;;6250993;22;87707;-78
2023/05/11 13:12:24;;;;;;;1.40;0.20;;;21.10;59.00;;;;;;6247733;22;87339;-82
2023/05/11 13:15:12;;;;;;;1.88;0.10;;;21.10;57.80;;;;;;6250761;22;87450;-80
2023/05/11 13:17:40;;;;;;;0.68;0.10;;;21.10;57.00;;;;;;6249904;22;86326;-78
2023/05/11 13:20:25;;;;;;;1.33;0.30;;;21.20;58.60;;;;;;6249794;22;88670;-79
2023/05/11 13:23:12;;;;;;;2.08;0.30;;;21.30;58.70;;;;;;6249654;22;88290;-80
2023/05/11 13:25:50;;;;;;;0.93;0.10;;;21.40;59.30;;;;;;6246911;22;88632;-79
2023/05/11 13:28:17;;;;;;;1.23;0.10;;;21.50;57.60;;;;;;6250331;22;87217;-78
2023/05/11 13:30:43;;;;;;;0.47;0.10;;;21.50;58.00;;;;;;6250160;22;88446;-78
2023/05/11 13:33:09;;;;;;;0.43;0.10;;;21.20;56.80;;;;;;6249995;22;87904;-78
2023/05/11 13:35:40;;;;;;;2.35;0.10;;;21.20;55.30;;;;;;6251129;22;87380;-80
2023/05/11 13:38:06;;;;;;;0.57;0.15;;;21.00;58.30;;;;;;6222356;22;88065;-78
2023/05/11 13:40:32;;;;;;;0.90;0.13;;;20.90;55.20;;;;;;6250337;22;88709;-78
2023/05/11 13:42:59;;;;;;;0.80;0.08;;;20.80;57.80;;;;;;6247880;22;87466;-81
2023/05/11 13:45:25;;;;;;;0.70;0.13;;;20.70;59.00;;;;;;6251567;22;87273;-81
2023/05/11 13:47:51;;;;;;;1.30;0.30;;;20.60;60.00;;;;;;6252776;22;87144;-78
2023/05/11 13:50:17;;;;;;;3.20;1.80;;;20.60;58.70;;;;;;6251537;22;89544;-80
2023/05/11 13:52:42;;;;;;;7.55;0.73;;;20.40;58.20;;;;;;6252497;22;88986;-79
2023/05/11 13:55:08;;;;;;;0.98;0.10;;;20.30;60.70;;;;;;6252683;22;86907;-80
2023/05/11 13:57:34;;;;;;;1.92;0.20;;;20.00;62.40;;;;;;6251058;22;87214;-79
2023/05/11 14:00:00;;;;;;;1.08;0.10;;;19.50;63.80;;;;;;6252423;22;88351;-79
2023/05/11 14:02:25;;;;;;;1.35;0.10;;;19.10;64.50;;;;;;6250776;22;88193;-79
2023/05/11 14:04:51;;;;;;;0.70;0.08;;;18.90;65.50;;;;;;6252319;22;87008;-78
2023/05/11 14:07:17;;;;;;;0.32;0.10;;;18.90;64.00;;;;;;6253397;22;86172;-79
2023/05/11 14:09:42;;;;;;;2.50;0.13;;;18.70;63.80;;;;;;6251228;22;89117;-80
2023/05/11 14:12:09;;;;;;;6.63;0.70;;;18.70;64.60;;;;;;6223539;22;91240;-78
2023/05/11 14:14:34;;;;;;;0.85;0.22;;;18.70;65.30;;;;;;6248875;22;88238;-78
2023/05/11 14:17:00;;;;;;;0.20;0.10;;;18.90;66.90;;;;;;6249362;22;87198;-79
2023/05/11 14:19:26;;;;;;;5.50;0.52;;;18.80;65.40;;;;;;6252117;22;87695;-79
2023/05/11 14:21:52;;;;;;;1.50;0.13;;;18.60;65.70;;;;;;6251943;22;88134;-80
2023/05/11 14:24:18;;;;;;;2.70;0.10;;;18.60;67.20;;;;;;6252421;22;87648;-79
2023/05/11 14:26:43;;;;;;;0.10;0.00;;;18.50;67.50;;;;;;6252634;22;87208;-78
2023/05/11 14:29:09;;;;;;;0.30;0.03;;;18.40;65.70;;;;;;6224923;22;88425;-80
2023/05/11 14:31:35;;;;;;;0.40;0.10;;;18.10;67.10;;;;;;6247651;22;88176;-79
2023/05/11 14:34:02;;;;;;;0.20;0.00;;;18.00;67.10;;;;;;6250761;22;87327;-80
2023/05/11 14:36:28;;;;;;;1.40;0.30;;;18.00;69.20;;;;;;6250083;22;87561;-78
2023/05/11 14:38:53;;;;;;;0.70;0.20;;;18.00;68.00;;;;;;6251800;22;89032;-78
2023/05/11 14:41:20;;;;;;;3.03;0.13;;;18.00;69.10;;;;;;6224122;22;89210;-78
2023/05/11 14:43:48;;;;;;;0.45;0.10;;;18.00;68.70;;;;;;6244624;22;87582;-79
2023/05/11 14:46:16;;;;;;;0.55;0.13;;;18.00;68.50;;;;;;6220354;22;87664;-79
2023/05/11 14:48:42;;;;;;;0.32;0.05;;;18.20;68.50;;;;;;6244460;22;87567;-80
2023/05/11 14:51:08;;;;;;;0.63;0.03;;;18.40;67.30;;;;;;6244207;22;88122;-78
2023/05/11 14:53:34;;;;;;;0.60;0.05;;;18.50;67.60;;;;;;6248246;22;87256;-77
2023/05/11 14:55:59;;;;;;;0.17;0.00;;;18.70;68.40;;;;;;6253103;22;86527;-79
2023/05/11 14:58:25;;;;;;;0.70;0.03;;;18.60;67.90;;;;;;6251952;22;88101;-77
2023/05/11 15:00:51;;;;;;;0.30;0.10;;;18.60;67.50;;;;;;6249996;22;87852;-77
2023/05/11 15:03:17;;;;;;;0.30;0.00;;;18.60;67.60;;;;;;6250206;22;88064;-76
2023/05/11 15:05:45;;;;;;;0.20;0.05;;;18.60;67.80;;;;;;6248727;22;87436;-77
2023/05/11 15:08:11;;;;;;;0.40;0.05;;;18.50;65.90;;;;;;6224467;22;89743;-77
2023/05/11 15:10:39;;;;;;;3.47;0.22;;;18.70;67.00;;;;;;6223896;22;88937;-77
2023/05/11 15:13:05;;;;;;;0.47;0.10;;;19.20;71.80;;;;;;6251312;22;87806;-77
2023/05/11 15:15:31;;;;;;;1.20;0.10;;;19.30;65.20;;;;;;6252002;22;87403;-77
2023/05/11 15:17:56;;;;;;;1.23;0.13;;;19.30;67.20;;;;;;6223944;22;89778;-76
2023/05/11 15:20:22;;;;;;;0.75;0.10;;;19.00;67.50;;;;;;6250504;22;87558;-80
2023/05/11 15:22:48;;;;;;;1.10;0.10;;;19.10;66.60;;;;;;6248233;22;87375;-77
2023/05/11 15:25:13;;;;;;;0.35;0.10;;;18.80;66.60;;;;;;6252540;22;87609;-78
2023/05/11 15:27:39;;;;;;;0.90;0.03;;;18.60;67.70;;;;;;6251633;22;88686;-78
2023/05/11 15:30:37;;;;;;;0.80;0.03;;;18.50;68.90;;;;;;6252406;22;87450;-81
2023/05/11 15:33:03;;;;;;;1.17;0.10;;;18.40;67.50;;;;;;6252630;22;87042;-80
2023/05/11 15:35:28;;;;;;;0.68;0.20;;;18.50;68.60;;;;;;6252277;22;87300;-81
2023/05/11 15:37:54;;;;;;;0.55;0.10;;;18.50;69.20;;;;;;6249496;22;87997;-79
2023/05/11 15:40:19;;;;;;;0.82;0.10;;;18.60;68.30;;;;;;6252057;22;87322;-81
2023/05/11 15:42:45;;;;;;;1.02;0.40;;;18.50;68.40;;;;;;6252800;22;86898;-81
2023/05/11 15:45:11;;;;;;;1.08;0.10;;;18.50;69.50;;;;;;6253504;22;86250;-82
2023/05/11 15:47:36;;;;;;;0.68;0.10;;;18.40;67.90;;;;;;6226423;22;90091;-81
2023/05/11 15:50:02;;;;;;;0.65;0.17;;;18.10;69.80;;;;;;6252489;22;87794;-82
2023/05/11 15:52:28;;;;;;;0.45;0.10;;;18.10;67.30;;;;;;6249459;22;88156;-81
2023/05/11 15:54:54;;;;;;;0.85;0.10;;;18.10;66.60;;;;;;6252349;22;87278;-81
2023/05/11 15:57:19;;;;;;;4.53;0.13;;;18.10;68.00;;;;;;6252719;22;88104;-82
2023/05/11 15:59:45;;;;;;;1.17;0.20;;;18.00;68.50;;;;;;6251287;22;89137;-82
2023/05/11 16:02:11;;;;;;;1.40;0.10;;;17.80;67.80;;;;;;6251615;22;87510;-82
2023/05/11 16:04:37;;;;;;;1.20;0.20;;;17.80;67.60;;;;;;6254511;22;87226;-81
2023/05/11 16:07:03;;;;;;;0.95;0.20;;;17.70;67.10;;;;;;6253315;22;88059;-81
2023/05/11 16:09:28;;;;;;;0.40;0.10;;;17.60;67.90;;;;;;6249003;22;87888;-82